Time,TemperatureF,DewpointF,PressureIn,WindDirection,WindDirectionDegrees,WindSpeedMPH,WindSpeedGustMPH,Humidity,HourlyPrecipIn,Conditions,Clouds,dailyrainin,SoftwareType,DateUTC
2013-02-14 00:00:00,29.7,27.4,29.74,North,32767,-999.0,0.0,91,0.00,,,0.02,Wunderground v.1.15,2013-02-14 05:00:00,
2013-02-14 00:05:00,29.7,27.4,29.74,North,32767,-999.0,0.0,91,0.00,,,0.00,Wunderground v.1.15,2013-02-14 05:05:00,
2013-02-14 00:15:00,29.3,27.0,29.74,North,32767,-999.0,0.0,91,0.00,,,0.00,Wunderground v.1.15,2013-02-14 05:15:00,
2013-02-14 00:20:00,29.2,26.9,29.74,North,32767,-999.0,0.0,91,0.00,,,0.00,Wunderground v.1.15,2013-02-14 05:20:00,
2013-02-14 00:25:00,29.9,27.9,29.75,North,32767,-999.0,0.0,92,0.00,,,0.00,Wunderground v.1.15,2013-02-14 05:25:00,
2013-02-14 00:35:00,30.3,28.3,29.74,North,32767,-999.0,0.0,92,0.00,,,0.00,Wunderground v.1.15,2013-02-14 05:35:00,
2013-02-14 00:40:00,30.5,28.5,29.75,North,32767,-999.0,0.0,92,0.00,,,0.00,Wunderground v.1.15,2013-02-14 05:40:00,
2013-02-14 00:45:00,30.3,28.3,29.75,North,32767,-999.0,0.0,92,0.00,,,0.00,Wunderground v.1.15,2013-02-14 05:45:00,
2013-02-14 00:50:00,30.1,28.1,29.75,North,32767,-999.0,0.0,92,0.00,,,0.00,Wunderground v.1.15,2013-02-14 05:50:00,
2013-02-14 00:55:00,30.0,28.0,29.75,North,32767,-999.0,0.0,92,0.00,,,0.00,Wunderground v.1.15,2013-02-14 05:55:00,
2013-02-14 01:05:00,29.7,27.7,29.74,North,32767,-999.0,0.0,92,0.00,,,0.00,Wunderground v.1.15,2013-02-14 06:05:00,
2013-02-14 01:15:00,29.7,27.9,29.74,North,32767,-999.0,0.0,93,0.00,,,0.00,Wunderground v.1.15,2013-02-14 06:15:00,
2013-02-14 01:20:00,29.8,28.0,29.74,North,32767,-999.0,0.0,93,0.00,,,0.00,Wunderground v.1.15,2013-02-14 06:20:00,
2013-02-14 01:30:00,29.8,28.0,29.74,North,32767,-999.0,0.0,93,0.00,,,0.00,Wunderground v.1.15,2013-02-14 06:30:00,
2013-02-14 01:40:00,29.2,27.4,29.74,North,32767,-999.0,0.0,93,0.00,,,0.00,Wunderground v.1.15,2013-02-14 06:40:00,
2013-02-14 01:50:00,29.7,28.2,29.74,North,32767,-999.0,0.0,94,0.00,,,0.00,Wunderground v.1.15,2013-02-14 06:50:00,
2013-02-14 01:55:00,29.8,28.3,29.74,North,32767,-999.0,0.0,94,0.00,,,0.00,Wunderground v.1.15,2013-02-14 06:55:00,
2013-02-14 02:05:00,29.7,28.2,29.74,North,32767,-999.0,0.0,94,0.00,,,0.00,Wunderground v.1.15,2013-02-14 07:05:00,
2013-02-14 02:15:00,29.4,27.9,29.74,North,32767,-999.0,0.0,94,0.00,,,0.00,Wunderground v.1.15,2013-02-14 07:15:00,
2013-02-14 02:25:00,29.6,28.1,29.73,North,32767,-999.0,0.0,94,0.00,,,0.00,Wunderground v.1.15,2013-02-14 07:25:00,
2013-02-14 02:30:00,29.7,28.2,29.73,North,32767,-999.0,0.0,94,0.00,,,0.00,Wunderground v.1.15,2013-02-14 07:30:00,
2013-02-14 02:40:00,29.3,27.8,29.73,North,32767,-999.0,0.0,94,0.00,,,0.00,Wunderground v.1.15,2013-02-14 07:40:00,
2013-02-14 02:45:00,28.5,27.0,29.73,North,32767,-999.0,0.0,94,0.00,,,0.00,Wunderground v.1.15,2013-02-14 07:45:00,
2013-02-14 02:50:00,28.7,27.2,29.73,North,32767,-999.0,0.0,94,0.00,,,0.00,Wunderground v.1.15,2013-02-14 07:50:00,
2013-02-14 02:55:00,29.1,27.8,29.73,North,32767,-999.0,0.0,95,0.00,,,0.00,Wunderground v.1.15,2013-02-14 07:55:00,
2013-02-14 03:05:00,28.9,27.6,29.73,North,32767,-999.0,0.0,95,0.00,,,0.00,Wunderground v.1.15,2013-02-14 08:05:00,
2013-02-14 03:15:00,29.0,27.7,29.73,North,32767,-999.0,0.0,95,0.00,,,0.00,Wunderground v.1.15,2013-02-14 08:15:00,
2013-02-14 03:25:00,29.1,27.8,29.73,North,32767,-999.0,0.0,95,0.00,,,0.00,Wunderground v.1.15,2013-02-14 08:25:00,
2013-02-14 03:35:00,29.0,27.7,29.72,North,32767,-999.0,0.0,95,0.00,,,0.00,Wunderground v.1.15,2013-02-14 08:35:00,
2013-02-14 03:40:00,29.3,28.0,29.72,North,32767,-999.0,0.0,95,0.00,,,0.00,Wunderground v.1.15,2013-02-14 08:40:00,
2013-02-14 03:45:00,29.3,28.0,29.72,North,32767,-999.0,0.0,95,0.00,,,0.00,Wunderground v.1.15,2013-02-14 08:45:00,
2013-02-14 07:40:00,32.9,31.1,29.68,North,32767,-999.0,0.0,93,0.00,,,0.00,Wunderground v.1.15,2013-02-14 12:40:00,
2013-02-14 07:45:00,33.0,31.2,29.67,North,32767,-999.0,0.0,93,0.00,,,0.00,Wunderground v.1.15,2013-02-14 12:45:00,
2013-02-14 07:50:00,33.1,31.3,29.67,North,32767,-999.0,0.0,93,0.00,,,0.00,Wunderground v.1.15,2013-02-14 12:50:00,
2013-02-14 08:00:00,33.3,31.5,29.67,North,32767,-999.0,0.0,93,0.00,,,0.00,Wunderground v.1.15,2013-02-14 13:00:00,
2013-02-14 08:05:00,33.5,31.7,29.66,North,32767,-999.0,0.0,93,0.00,,,0.00,Wunderground v.1.15,2013-02-14 13:05:00,
2013-02-14 08:15:00,33.8,32.0,29.66,North,32767,-999.0,0.0,93,0.00,,,0.00,Wunderground v.1.15,2013-02-14 13:15:00,
2013-02-14 08:25:00,34.1,32.0,29.66,North,32767,-999.0,0.0,92,0.00,,,0.00,Wunderground v.1.15,2013-02-14 13:25:00,
2013-02-14 08:35:00,34.2,32.1,29.65,North,32767,-999.0,0.0,92,0.00,,,0.00,Wunderground v.1.15,2013-02-14 13:35:00,
2013-02-14 08:45:00,34.5,32.1,29.65,North,32767,-999.0,0.0,91,0.00,,,0.00,Wunderground v.1.15,2013-02-14 13:45:00,
2013-02-14 08:50:00,34.9,32.3,29.65,North,32767,-999.0,0.0,90,0.00,,,0.00,Wunderground v.1.15,2013-02-14 13:50:00,
2013-02-14 09:00:00,35.6,32.7,29.65,North,32767,-999.0,0.0,89,0.00,,,0.01,Wunderground v.1.15,2013-02-14 14:00:00,
2013-02-14 09:05:00,35.8,32.6,29.65,North,32767,-999.0,0.0,88,0.00,,,0.01,Wunderground v.1.15,2013-02-14 14:05:00,
2013-02-14 09:15:00,36.1,32.6,29.65,North,32767,-999.0,0.0,87,0.00,,,0.01,Wunderground v.1.15,2013-02-14 14:15:00,
2013-02-14 09:25:00,36.5,32.7,29.64,North,32767,-999.0,0.0,86,0.00,,,0.01,Wunderground v.1.15,2013-02-14 14:25:00,
2013-02-14 09:35:00,37.0,32.9,29.64,North,32767,-999.0,0.0,85,0.00,,,0.01,Wunderground v.1.15,2013-02-14 14:35:00,
2013-02-14 09:40:00,37.3,32.9,29.64,North,32767,-999.0,0.0,84,0.00,,,0.01,Wunderground v.1.15,2013-02-14 14:40:00,
2013-02-14 09:45:00,37.3,32.9,29.64,SSW,193,0.0,0.0,84,0.00,,,0.01,Wunderground v.1.15,2013-02-14 14:45:00,
2013-02-14 09:55:00,37.6,32.9,29.64,SSW,195,0.0,0.0,83,0.00,,,0.01,Wunderground v.1.15,2013-02-14 14:55:00,
2013-02-14 10:05:00,38.0,33.0,29.64,SSW,202,0.0,0.0,82,0.00,,,0.01,Wunderground v.1.15,2013-02-14 15:05:00,
2013-02-14 10:15:00,38.5,33.2,29.64,SSW,205,0.0,0.0,81,0.00,,,0.01,Wunderground v.1.15,2013-02-14 15:15:00,
2013-02-14 10:25:00,38.5,33.2,29.63,SSW,201,0.0,0.0,81,0.00,,,0.01,Wunderground v.1.15,2013-02-14 15:25:00,
2013-02-14 10:35:00,38.6,33.3,29.64,SSW,202,0.0,0.0,81,0.00,,,0.01,Wunderground v.1.15,2013-02-14 15:35:00,
2013-02-14 10:40:00,38.4,33.1,29.64,SSW,202,0.0,0.0,81,0.00,,,0.01,Wunderground v.1.15,2013-02-14 15:40:00,
2013-02-14 10:50:00,38.4,33.4,29.63,SSW,208,0.0,0.0,82,0.00,,,0.01,Wunderground v.1.15,2013-02-14 15:50:00,
2013-02-14 10:55:00,38.5,33.2,29.63,SW,222,0.0,0.0,81,0.00,,,0.01,Wunderground v.1.15,2013-02-14 15:55:00,
2013-02-14 11:05:00,38.6,33.3,29.63,SSW,211,0.0,0.0,81,0.00,,,0.01,Wunderground v.1.15,2013-02-14 16:05:00,
2013-02-14 11:15:00,38.3,33.3,29.63,SSW,207,0.0,0.0,82,0.00,,,0.01,Wunderground v.1.15,2013-02-14 16:15:00,
2013-02-14 11:25:00,38.2,33.2,29.63,SW,218,0.0,0.0,82,0.00,,,0.01,Wunderground v.1.15,2013-02-14 16:25:00,
2013-02-14 11:30:00,38.0,33.3,29.63,SSW,207,0.0,0.0,83,0.00,,,0.01,Wunderground v.1.15,2013-02-14 16:30:00,
2013-02-14 11:35:00,37.9,33.2,29.63,SW,215,0.0,0.0,83,0.00,,,0.01,Wunderground v.1.15,2013-02-14 16:35:00,
2013-02-14 11:45:00,37.7,33.3,29.63,SSW,200,0.0,0.0,84,0.00,,,0.01,Wunderground v.1.15,2013-02-14 16:45:00,
2013-02-14 11:55:00,37.5,33.1,29.63,SSW,213,0.0,0.0,84,0.00,,,0.01,Wunderground v.1.15,2013-02-14 16:55:00,
2013-02-14 12:05:00,37.5,33.1,29.63,SSW,213,0.0,0.0,84,0.00,,,0.01,Wunderground v.1.15,2013-02-14 17:05:00,
2013-02-14 12:10:00,37.5,33.4,29.64,SSW,200,0.0,0.0,85,0.00,,,0.01,Wunderground v.1.15,2013-02-14 17:10:00,
2013-02-14 12:20:00,37.6,33.5,29.64,SSW,208,0.0,0.0,85,0.00,,,0.01,Wunderground v.1.15,2013-02-14 17:20:00,
2013-02-14 12:25:00,37.7,33.6,29.64,SSW,202,0.0,0.0,85,0.00,,,0.01,Wunderground v.1.15,2013-02-14 17:25:00,
2013-02-14 12:35:00,37.7,33.6,29.64,SW,214,0.0,0.0,85,0.00,,,0.01,Wunderground v.1.15,2013-02-14 17:35:00,
2013-02-14 12:45:00,37.6,33.5,29.63,SSW,201,0.0,0.0,85,0.00,,,0.01,Wunderground v.1.15,2013-02-14 17:45:00,
2013-02-14 12:55:00,37.5,33.4,29.63,SW,221,0.0,0.0,85,0.00,,,0.01,Wunderground v.1.15,2013-02-14 17:55:00,
2013-02-14 13:00:00,37.4,33.6,29.63,SSW,203,0.0,0.0,86,0.00,,,0.01,Wunderground v.1.15,2013-02-14 18:00:00,
2013-02-14 13:10:00,37.4,33.6,29.62,SSW,208,0.0,0.0,86,0.00,,,0.01,Wunderground v.1.15,2013-02-14 18:10:00,
2013-02-14 13:20:00,37.2,33.4,29.63,SW,221,0.0,0.0,86,0.00,,,0.01,Wunderground v.1.15,2013-02-14 18:20:00,
2013-02-14 13:25:00,37.2,33.4,29.63,SW,222,0.0,0.0,86,0.00,,,0.01,Wunderground v.1.15,2013-02-14 18:25:00,
2013-02-14 13:35:00,37.1,33.3,29.63,SW,221,0.0,0.0,86,0.00,,,0.01,Wunderground v.1.15,2013-02-14 18:35:00,
2013-02-14 13:45:00,36.9,33.4,29.63,SW,214,0.0,0.0,87,0.00,,,0.01,Wunderground v.1.15,2013-02-14 18:45:00,
2013-02-14 13:55:00,36.8,33.3,29.63,SSW,206,0.0,0.0,87,0.00,,,0.01,Wunderground v.1.15,2013-02-14 18:55:00,
2013-02-14 14:00:00,36.8,33.3,29.63,SW,215,0.0,0.0,87,0.00,,,0.01,Wunderground v.1.15,2013-02-14 19:00:00,
2013-02-14 14:05:00,36.8,33.3,29.63,SSW,211,0.0,0.0,87,0.00,,,0.01,Wunderground v.1.15,2013-02-14 19:05:00,
2013-02-14 14:15:00,36.6,33.4,29.63,SSW,206,0.0,0.0,88,0.00,,,0.01,Wunderground v.1.15,2013-02-14 19:15:00,
2013-02-14 14:25:00,36.4,33.5,29.63,SSW,207,0.0,0.0,89,0.00,,,0.01,Wunderground v.1.15,2013-02-14 19:25:00,
2013-02-14 14:35:00,35.8,33.2,29.63,SW,219,0.0,0.0,90,0.00,,,0.01,Wunderground v.1.15,2013-02-14 19:35:00,
2013-02-14 14:40:00,35.5,33.1,29.63,SSW,205,0.0,0.0,91,0.00,,,0.01,Wunderground v.1.15,2013-02-14 19:40:00,
2013-02-14 14:50:00,34.5,32.4,29.64,SW,220,0.0,0.0,92,0.00,,,0.02,Wunderground v.1.15,2013-02-14 19:50:00,
2013-02-14 14:55:00,34.3,32.5,29.64,SW,221,0.0,0.0,93,0.00,,,0.02,Wunderground v.1.15,2013-02-14 19:55:00,
2013-02-14 15:05:00,34.1,32.3,29.64,SW,220,0.0,0.0,93,0.04,,,0.03,Wunderground v.1.15,2013-02-14 20:05:00,
2013-02-14 15:15:00,34.1,32.6,29.65,SSW,213,0.0,0.0,94,0.04,,,0.03,Wunderground v.1.15,2013-02-14 20:15:00,
2013-02-14 15:25:00,34.3,32.8,29.65,SW,224,0.0,0.0,94,0.00,,,0.03,Wunderground v.1.15,2013-02-14 20:25:00,
2013-02-14 15:30:00,34.4,32.9,29.65,SW,214,0.0,0.0,94,0.00,,,0.03,Wunderground v.1.15,2013-02-14 20:30:00,
2013-02-14 15:40:00,34.8,33.5,29.65,SW,221,0.0,0.0,95,0.00,,,0.03,Wunderground v.1.15,2013-02-14 20:40:00,
2013-02-14 15:50:00,35.3,34.0,29.66,SW,222,0.0,0.0,95,0.00,,,0.04,Wunderground v.1.15,2013-02-14 20:50:00,
2013-02-14 15:55:00,35.4,33.8,29.66,SW,222,0.0,0.0,94,0.00,,,0.04,Wunderground v.1.15,2013-02-14 20:55:00,
2013-02-14 16:05:00,35.7,34.1,29.67,SW,228,0.0,0.0,94,0.00,,,0.04,Wunderground v.1.15,2013-02-14 21:05:00,
2013-02-14 16:15:00,35.9,34.3,29.67,SW,229,0.0,0.0,94,0.00,,,0.04,Wunderground v.1.15,2013-02-14 21:15:00,
2013-02-14 16:25:00,36.0,34.2,29.68,SW,230,0.0,0.0,93,0.00,,,0.05,Wunderground v.1.15,2013-02-14 21:25:00,
2013-02-14 16:30:00,36.0,34.2,29.68,SW,231,0.0,0.0,93,0.00,,,0.05,Wunderground v.1.15,2013-02-14 21:30:00,
2013-02-14 16:35:00,36.0,34.2,29.68,SW,227,0.0,0.0,93,0.00,,,0.05,Wunderground v.1.15,2013-02-14 21:35:00,
2013-02-14 16:45:00,36.0,33.9,29.68,West,270,0.0,0.0,92,0.00,,,0.05,Wunderground v.1.15,2013-02-14 21:45:00,
2013-02-14 16:55:00,35.6,33.5,29.69,West,270,0.0,0.0,92,0.00,,,0.05,Wunderground v.1.15,2013-02-14 21:55:00,
2013-02-14 17:05:00,35.2,33.1,29.70,North,32767,-999.0,0.0,92,0.00,,,0.05,Wunderground v.1.15,2013-02-14 22:05:00,
2013-02-14 17:15:00,34.9,32.8,29.71,North,32767,-999.0,0.0,92,0.00,,,0.05,Wunderground v.1.15,2013-02-14 22:15:00,
2013-02-14 17:25:00,34.5,32.4,29.72,North,32767,-999.0,0.0,92,0.00,,,0.05,Wunderground v.1.15,2013-02-14 22:25:00,
2013-02-14 17:35:00,34.1,32.3,29.73,North,32767,-999.0,0.0,93,0.00,,,0.05,Wunderground v.1.15,2013-02-14 22:35:00,
2013-02-14 17:45:00,33.7,31.9,29.74,North,32767,-999.0,0.0,93,0.00,,,0.05,Wunderground v.1.15,2013-02-14 22:45:00,
2013-02-14 17:55:00,33.6,31.8,29.75,North,32767,-999.0,0.0,93,0.00,,,0.05,Wunderground v.1.15,2013-02-14 22:55:00,
2013-02-14 18:00:00,33.4,31.6,29.76,North,32767,-999.0,0.0,93,0.00,,,0.05,Wunderground v.1.15,2013-02-14 23:00:00,
2013-02-14 18:05:00,33.4,31.6,29.76,North,32767,-999.0,0.0,93,0.00,,,0.05,Wunderground v.1.15,2013-02-14 23:05:00,
2013-02-14 18:15:00,33.2,31.7,29.77,North,32767,-999.0,0.0,94,0.00,,,0.05,Wunderground v.1.15,2013-02-14 23:15:00,
2013-02-14 18:25:00,33.0,31.5,29.77,North,32767,-999.0,0.0,94,0.00,,,0.05,Wunderground v.1.15,2013-02-14 23:25:00,
2013-02-14 18:35:00,33.0,31.5,29.78,North,32767,-999.0,0.0,94,0.00,,,0.05,Wunderground v.1.15,2013-02-14 23:35:00,
2013-02-14 18:40:00,33.0,31.5,29.78,North,32767,-999.0,0.0,94,0.00,,,0.05,Wunderground v.1.15,2013-02-14 23:40:00,
2013-02-14 18:45:00,33.0,31.5,29.78,North,32767,-999.0,0.0,94,0.00,,,0.05,Wunderground v.1.15,2013-02-14 23:45:00,
2013-02-14 18:55:00,33.0,31.5,29.79,North,32767,-999.0,0.0,94,0.00,,,0.05,Wunderground v.1.15,2013-02-14 23:55:00,
2013-02-14 19:05:00,32.9,31.4,29.80,North,32767,-999.0,0.0,94,0.00,,,0.05,Wunderground v.1.15,2013-02-15 00:05:00,
2013-02-14 19:15:00,33.0,31.5,29.81,North,32767,-999.0,0.0,94,0.00,,,0.05,Wunderground v.1.15,2013-02-15 00:15:00,
2013-02-14 19:20:00,33.1,31.3,29.81,North,32767,-999.0,0.0,93,0.00,,,0.05,Wunderground v.1.15,2013-02-15 00:20:00,
2013-02-14 19:25:00,33.1,31.3,29.81,North,32767,-999.0,0.0,93,0.00,,,0.05,Wunderground v.1.15,2013-02-15 00:25:00,
2013-02-14 19:35:00,33.0,31.2,29.82,North,32767,-999.0,0.0,93,0.00,,,0.05,Wunderground v.1.15,2013-02-15 00:35:00,
2013-02-14 19:45:00,32.9,31.1,29.83,North,32767,-999.0,0.0,93,0.00,,,0.05,Wunderground v.1.15,2013-02-15 00:45:00,
2013-02-14 19:55:00,32.6,30.8,29.83,North,32767,-999.0,0.0,93,0.00,,,0.05,Wunderground v.1.15,2013-02-15 00:55:00,
2013-02-14 20:00:00,32.6,30.8,29.83,North,32767,-999.0,0.0,93,0.00,,,0.05,Wunderground v.1.15,2013-02-15 01:00:00,
2013-02-14 20:05:00,32.6,31.1,29.84,North,32767,-999.0,0.0,94,0.00,,,0.05,Wunderground v.1.15,2013-02-15 01:05:00,
2013-02-14 20:15:00,32.6,31.1,29.84,North,32767,-999.0,0.0,94,0.00,,,0.05,Wunderground v.1.15,2013-02-15 01:15:00,
2013-02-14 20:25:00,32.6,31.1,29.84,North,32767,-999.0,0.0,94,0.00,,,0.05,Wunderground v.1.15,2013-02-15 01:25:00,
2013-02-14 20:35:00,32.6,30.8,29.84,North,32767,-999.0,0.0,93,0.00,,,0.05,Wunderground v.1.15,2013-02-15 01:35:00,
2013-02-14 20:45:00,32.5,30.7,29.85,North,32767,-999.0,0.0,93,0.00,,,0.05,Wunderground v.1.15,2013-02-15 01:45:00,
2013-02-14 20:50:00,32.4,30.9,29.85,North,32767,-999.0,0.0,94,0.00,,,0.05,Wunderground v.1.15,2013-02-15 01:50:00,
2013-02-14 20:55:00,32.4,30.9,29.85,North,32767,-999.0,0.0,94,0.00,,,0.05,Wunderground v.1.15,2013-02-15 01:55:00,
2013-02-14 21:05:00,32.1,30.6,29.86,North,32767,-999.0,0.0,94,0.00,,,0.05,Wunderground v.1.15,2013-02-15 02:05:00,
2013-02-14 21:15:00,31.6,30.1,29.86,North,32767,-999.0,0.0,94,0.00,,,0.05,Wunderground v.1.15,2013-02-15 02:15:00,
2013-02-14 21:25:00,31.1,29.6,29.86,North,32767,-999.0,0.0,94,0.00,,,0.05,Wunderground v.1.15,2013-02-15 02:25:00,
2013-02-14 21:30:00,30.9,29.4,29.86,North,32767,-999.0,0.0,94,0.00,,,0.05,Wunderground v.1.15,2013-02-15 02:30:00,
2013-02-14 21:40:00,30.9,29.4,29.86,North,32767,-999.0,0.0,94,0.00,,,0.05,Wunderground v.1.15,2013-02-15 02:40:00,
2013-02-14 21:45:00,30.8,29.3,29.87,North,32767,-999.0,0.0,94,0.00,,,0.05,Wunderground v.1.15,2013-02-15 02:45:00,
2013-02-14 21:55:00,30.6,29.1,29.88,North,32767,-999.0,0.0,94,0.00,,,0.05,Wunderground v.1.15,2013-02-15 02:55:00,
2013-02-14 22:05:00,30.5,29.0,29.88,North,32767,-999.0,0.0,94,0.00,,,0.05,Wunderground v.1.15,2013-02-15 03:05:00,
2013-02-14 22:10:00,30.5,29.0,29.88,North,32767,-999.0,0.0,94,0.00,,,0.05,Wunderground v.1.15,2013-02-15 03:10:00,
2013-02-14 22:20:00,30.3,28.8,29.89,North,32767,-999.0,0.0,94,0.00,,,0.05,Wunderground v.1.15,2013-02-15 03:20:00,
2013-02-14 22:25:00,30.1,28.6,29.89,North,32767,-999.0,0.0,94,0.00,,,0.05,Wunderground v.1.15,2013-02-15 03:25:00,
2013-02-14 22:35:00,29.7,28.2,29.89,North,32767,-999.0,0.0,94,0.00,,,0.05,Wunderground v.1.15,2013-02-15 03:35:00,
2013-02-14 22:45:00,29.5,28.0,29.90,North,32767,-999.0,0.0,94,0.00,,,0.05,Wunderground v.1.15,2013-02-15 03:45:00,
2013-02-14 22:55:00,29.3,27.8,29.90,North,32767,-999.0,0.0,94,0.00,,,0.05,Wunderground v.1.15,2013-02-15 03:55:00,
2013-02-14 23:00:00,29.2,27.7,29.90,North,32767,-999.0,0.0,94,0.00,,,0.05,Wunderground v.1.15,2013-02-15 04:00:00,
2013-02-14 23:05:00,29.1,27.6,29.90,North,32767,-999.0,0.0,94,0.00,,,0.05,Wunderground v.1.15,2013-02-15 04:05:00,
2013-02-14 23:15:00,28.9,27.4,29.91,North,32767,-999.0,0.0,94,0.00,,,0.05,Wunderground v.1.15,2013-02-15 04:15:00,
2013-02-14 23:25:00,28.8,27.3,29.91,North,32767,-999.0,0.0,94,0.00,,,0.05,Wunderground v.1.15,2013-02-15 04:25:00,
2013-02-14 23:35:00,28.6,27.1,29.91,North,32767,-999.0,0.0,94,0.00,,,0.05,Wunderground v.1.15,2013-02-15 04:35:00,
2013-02-14 23:40:00,28.5,26.7,29.91,North,32767,-999.0,0.0,93,0.00,,,0.05,Wunderground v.1.15,2013-02-15 04:40:00,
2013-02-14 23:50:00,28.2,26.4,29.92,North,32767,-999.0,0.0,93,0.00,,,0.05,Wunderground v.1.15,2013-02-15 04:50:00,
2013-02-14 23:55:00,28.2,26.4,29.92,North,32767,-999.0,0.0,93,0.00,,,0.05,Wunderground v.1.15,2013-02-15 04:55:00,